createdAt,value
2022-10-11T00:01:22.365Z,96649.81
2022-10-11T00:03:49.027Z,96651.41
2022-10-11T00:06:15.852Z,96654.97
2022-10-11T00:08:42.437Z,96645.03
2022-10-11T00:11:10.426Z,96647.97
2022-10-11T00:13:37.086Z,96656.94
2022-10-11T00:16:11.911Z,96661.13
2022-10-11T00:18:39.159Z,96651.94
2022-10-11T00:21:09.559Z,96657.41
2022-10-11T00:23:37.088Z,96661.47
2022-10-11T00:26:06.861Z,96660.59
2022-10-11T00:28:34.025Z,96656.50
2022-10-11T00:31:01.081Z,96656.19
2022-10-11T00:33:28.094Z,96653.81
2022-10-11T00:35:54.735Z,96652.13
2022-10-11T00:38:21.359Z,96643.63
2022-10-11T00:40:47.974Z,96648.13
2022-10-11T00:43:23.003Z,96658.38
2022-10-11T00:45:58.471Z,96653.28
2022-10-11T00:48:42.448Z,96655.28
2022-10-11T00:51:18.467Z,96644.66
2022-10-11T00:53:47.695Z,96648.16
2022-10-11T00:56:24.019Z,96650.06
2022-10-11T00:58:51.557Z,96657.72
2022-10-11T01:01:18.251Z,96664.75
2022-10-11T01:03:45.112Z,96666.97
2022-10-11T01:06:11.757Z,96674.78
2022-10-11T01:08:38.949Z,96675.44
2022-10-11T01:11:06.356Z,96677.66
2022-10-11T01:13:36.240Z,96675.09
2022-10-11T01:16:12.535Z,96671.59
2022-10-11T01:18:59.003Z,96675.75
2022-10-11T01:22:06.403Z,96674.31
2022-10-11T01:24:45.087Z,96674.00
2022-10-11T01:27:38.899Z,96676.22
2022-10-11T01:30:05.870Z,96674.00
2022-10-11T01:32:43.203Z,96679.09
2022-10-11T01:35:28.176Z,96677.00
2022-10-11T01:38:04.878Z,96674.13
2022-10-11T01:40:42.177Z,96672.72
2022-10-11T01:43:10.056Z,96669.38
2022-10-11T01:45:37.865Z,96671.44
2022-10-11T01:48:08.866Z,96662.53
2022-10-11T01:50:42.690Z,96666.97
2022-10-11T01:53:31.110Z,96665.53
2022-10-11T01:56:14.337Z,96668.59
2022-10-11T01:59:09.319Z,96665.22
2022-10-11T02:02:14.526Z,96667.78
2022-10-11T02:04:48.333Z,96665.53
2022-10-11T02:07:21.622Z,96660.75
2022-10-11T02:09:56.023Z,96657.13
2022-10-11T02:12:37.327Z,96657.09
2022-10-11T02:15:09.428Z,96659.28
2022-10-11T02:17:44.663Z,96665.19
2022-10-11T02:20:17.402Z,96661.94
2022-10-11T02:22:48.245Z,96661.50
2022-10-11T02:25:20.423Z,96662.13
2022-10-11T02:27:48.724Z,96662.13
2022-10-11T02:30:16.295Z,96671.31
2022-10-11T02:32:45.941Z,96664.00
2022-10-11T02:35:13.187Z,96669.47
2022-10-11T02:37:57.662Z,96664.47
2022-10-11T02:40:37.717Z,96670.59
2022-10-11T02:43:36.711Z,96675.31
2022-10-11T02:46:05.488Z,96667.00
2022-10-11T02:48:33.653Z,96660.63
2022-10-11T02:51:00.319Z,96669.19
2022-10-11T02:53:27.273Z,96665.72
2022-10-11T02:55:56.043Z,96663.88
2022-10-11T02:58:23.839Z,96668.53
2022-10-11T03:00:50.517Z,96662.28
2022-10-11T03:03:17.132Z,96662.19
2022-10-11T03:05:44.068Z,96657.94
2022-10-11T03:08:14.013Z,96664.34
2022-10-11T03:10:41.348Z,96661.19
2022-10-11T03:13:08.340Z,96670.69
2022-10-11T03:15:35.299Z,96670.53
2022-10-11T03:18:02.092Z,96662.13
2022-10-11T03:20:28.703Z,96670.88
2022-10-11T03:22:55.654Z,96665.97
2022-10-11T03:25:22.252Z,96665.81
2022-10-11T03:27:49.068Z,96672.34
2022-10-11T03:30:18.280Z,96654.50
2022-10-11T03:32:45.228Z,96656.09
2022-10-11T03:35:11.913Z,96665.34
2022-10-11T03:37:38.528Z,96659.44
2022-10-11T03:40:08.313Z,96662.13
2022-10-11T03:42:35.799Z,96656.25
2022-10-11T03:45:05.068Z,96657.72
2022-10-11T03:47:32.150Z,96663.06
2022-10-11T03:49:58.778Z,96655.56
2022-10-11T03:52:25.470Z,96654.94
2022-10-11T03:54:52.282Z,96654.16
2022-10-11T03:57:19.372Z,96661.34
2022-10-11T03:59:45.957Z,96648.28
2022-10-11T04:02:12.648Z,96655.00
2022-10-11T04:04:39.383Z,96655.78
2022-10-11T04:07:06.199Z,96652.56
2022-10-11T04:09:32.795Z,96664.69
2022-10-11T04:11:59.387Z,96665.31
2022-10-11T04:14:26.534Z,96664.09
2022-10-11T04:16:55.558Z,96675.22
2022-10-11T04:19:24.006Z,96684.34
2022-10-11T04:21:50.696Z,96692.78
2022-10-11T04:24:17.307Z,96702.06
2022-10-11T04:26:43.898Z,96696.84
2022-10-11T04:29:10.460Z,96698.69
2022-10-11T04:31:37.071Z,96707.53
2022-10-11T04:34:03.836Z,96705.53
2022-10-11T04:36:32.888Z,96712.31
2022-10-11T04:39:01.654Z,96718.47
2022-10-11T04:41:29.424Z,96719.56
2022-10-11T04:43:56.207Z,96716.06
2022-10-11T04:46:23.123Z,96726.19
2022-10-11T04:48:49.939Z,96714.81
2022-10-11T04:51:16.703Z,96719.00
2022-10-11T04:53:43.329Z,96719.69
2022-10-11T04:56:15.094Z,96724.81
2022-10-11T04:58:41.891Z,96723.22
2022-10-11T05:01:09.445Z,96727.78
2022-10-11T05:03:36.439Z,96732.19
2022-10-11T05:06:05.859Z,96731.50
2022-10-11T05:08:33.345Z,96727.69
2022-10-11T05:11:05.789Z,96729.38
2022-10-11T05:13:33.811Z,96732.84
2022-10-11T05:16:00.859Z,96732.81
2022-10-11T05:18:28.354Z,96724.25
2022-10-11T05:21:07.259Z,96726.66
2022-10-11T05:23:36.031Z,96727.75
2022-10-11T05:26:03.764Z,96730.63
2022-10-11T05:28:30.802Z,96738.03
2022-10-11T05:30:57.528Z,96735.38
2022-10-11T05:33:24.763Z,96738.94
2022-10-11T05:35:51.375Z,96742.44
2022-10-11T05:38:18.382Z,96743.13
2022-10-11T05:40:45.260Z,96751.56
2022-10-11T05:43:12.258Z,96743.75
2022-10-11T05:45:40.257Z,96754.47
2022-10-11T05:48:07.054Z,96749.41
2022-10-11T05:50:33.924Z,96751.16
2022-10-11T05:53:00.640Z,96754.94
2022-10-11T05:55:27.964Z,96762.13
2022-10-11T05:57:55.998Z,96760.16
2022-10-11T06:00:24.288Z,96760.16
2022-10-11T06:02:50.860Z,96757.34
2022-10-11T06:05:17.546Z,96762.00
2022-10-11T06:07:44.752Z,96756.16
2022-10-11T06:10:12.935Z,96764.97
2022-10-11T06:12:39.510Z,96759.28
2022-10-11T06:15:07.526Z,96765.31
2022-10-11T06:17:34.466Z,96754.94
2022-10-11T06:20:01.093Z,96763.53
2022-10-11T06:22:27.726Z,96768.69
2022-10-11T06:24:54.323Z,96771.56
2022-10-11T06:27:20.941Z,96761.72
2022-10-11T06:29:47.543Z,96764.38
2022-10-11T06:32:14.117Z,96763.66
2022-10-11T06:34:40.712Z,96760.16
2022-10-11T06:37:07.409Z,96772.94
2022-10-11T06:39:35.011Z,96767.88
2022-10-11T06:42:01.880Z,96770.63
2022-10-11T06:44:28.601Z,96778.34
2022-10-11T06:46:55.182Z,96772.09
2022-10-11T06:49:23.436Z,96770.78
2022-10-11T06:51:50.691Z,96774.72
2022-10-11T06:54:17.290Z,96774.28
2022-10-11T06:56:45.691Z,96783.06
2022-10-11T06:59:13.528Z,96783.69
2022-10-11T07:01:40.294Z,96786.00
2022-10-11T07:04:08.182Z,96794.53
2022-10-11T07:06:38.143Z,96791.81
2022-10-11T07:09:05.854Z,96793.78
2022-10-11T07:11:32.962Z,96796.34
2022-10-11T07:14:07.535Z,96793.00
2022-10-11T07:16:37.762Z,96793.81
2022-10-11T07:19:06.488Z,96793.69
2022-10-11T07:21:34.900Z,96799.28
2022-10-11T07:24:02.107Z,96801.63
2022-10-11T07:26:33.847Z,96801.22
2022-10-11T07:29:04.548Z,96799.03
2022-10-11T07:31:31.740Z,96805.38
2022-10-11T07:33:58.301Z,96807.63
2022-10-11T07:36:25.565Z,96813.84
2022-10-11T07:38:52.181Z,96809.69
2022-10-11T07:41:18.926Z,96806.66
2022-10-11T07:43:47.867Z,96812.56
2022-10-11T07:46:14.573Z,96815.13
2022-10-11T07:48:41.746Z,96811.44
2022-10-11T07:51:17.678Z,96817.84
2022-10-11T07:53:47.057Z,96823.75
2022-10-11T07:56:16.547Z,96818.00
2022-10-11T07:58:43.710Z,96816.25
2022-10-11T08:01:11.608Z,96817.66
2022-10-11T08:03:38.819Z,96824.03
2022-10-11T08:06:08.509Z,96830.75
2022-10-11T08:08:36.570Z,96838.09
2022-10-11T08:11:03.904Z,96831.91
2022-10-11T08:13:30.803Z,96842.41
2022-10-11T08:15:57.527Z,96842.41
2022-10-11T08:18:24.463Z,96839.88
2022-10-11T08:20:51.099Z,96838.59
2022-10-11T08:23:18.306Z,96834.47
2022-10-11T08:25:46.905Z,96837.00
2022-10-11T08:28:17.220Z,96840.22
2022-10-11T08:30:49.724Z,96841.13
2022-10-11T08:33:21.041Z,96840.34
2022-10-11T08:35:48.558Z,96843.84
2022-10-11T08:38:15.698Z,96846.75
2022-10-11T08:40:52.143Z,96843.72
2022-10-11T08:43:32.185Z,96852.63
2022-10-11T08:46:03.160Z,96852.91
2022-10-11T08:48:36.762Z,96852.81
2022-10-11T08:51:15.069Z,96851.50
2022-10-11T08:54:07.972Z,96854.53
2022-10-11T08:56:39.964Z,96858.19
2022-10-11T08:59:12.639Z,96857.06
2022-10-11T09:01:54.557Z,96864.63
2022-10-11T09:04:21.234Z,96868.53
2022-10-11T09:07:05.229Z,96857.44
2022-10-11T09:09:49.858Z,96864.50
2022-10-11T09:12:33.520Z,96855.75
2022-10-11T09:15:20.643Z,96857.28
2022-10-11T09:18:16.310Z,96858.66
2022-10-11T09:20:57.031Z,96851.34
2022-10-11T09:23:39.191Z,96856.78
2022-10-11T09:26:07.599Z,96861.81
2022-10-11T09:28:45.838Z,96857.47
2022-10-11T09:31:12.454Z,96857.84
2022-10-11T09:33:47.261Z,96862.84
2022-10-11T09:36:22.832Z,96861.03
2022-10-11T09:38:56.509Z,96854.91
2022-10-11T09:41:47.394Z,96854.88
2022-10-11T09:44:22.479Z,96849.22
2022-10-11T09:46:51.196Z,96849.88
2022-10-11T09:49:21.686Z,96841.63
2022-10-11T09:51:57.535Z,96842.25
2022-10-11T09:54:44.508Z,96840.84
2022-10-11T09:57:25.312Z,96839.41
2022-10-11T10:00:00.327Z,96843.53
2022-10-11T10:02:29.136Z,96847.81
2022-10-11T10:05:09.425Z,96844.47
2022-10-11T10:07:40.459Z,96846.28
2022-10-11T10:10:29.931Z,96844.66
2022-10-11T10:12:59.522Z,96837.00
2022-10-11T10:15:37.395Z,96843.00
2022-10-11T10:18:10.581Z,96848.28
2022-10-11T10:20:38.140Z,96846.47
2022-10-11T10:23:22.278Z,96843.13
2022-10-11T10:25:51.703Z,96849.50
2022-10-11T10:28:23.074Z,96845.81
2022-10-11T10:30:58.195Z,96848.59
2022-10-11T10:33:27.243Z,96849.50
2022-10-11T10:36:03.272Z,96846.84
2022-10-11T10:38:37.522Z,96840.63
2022-10-11T10:41:09.090Z,96835.84
2022-10-11T10:43:38.417Z,96841.22
2022-10-11T10:46:30.021Z,96833.53
2022-10-11T10:49:53.602Z,96832.06
2022-10-11T10:52:35.199Z,96836.44
2022-10-11T10:55:23.981Z,96834.69
2022-10-11T10:58:12.893Z,96836.22
2022-10-11T11:00:48.659Z,96830.06
2022-10-11T11:03:24.073Z,96829.28
2022-10-11T11:06:08.834Z,96830.41
2022-10-11T11:09:06.832Z,96822.69
2022-10-11T11:11:42.964Z,96824.34
2022-10-11T11:14:28.019Z,96824.13
2022-10-11T11:17:15.735Z,96823.19
2022-10-11T11:19:54.513Z,96813.97
2022-10-11T11:22:43.416Z,96817.56
2022-10-11T11:25:24.382Z,96812.56
2022-10-11T11:28:09.217Z,96804.78
2022-10-11T11:31:11.609Z,96804.84
2022-10-11T11:33:43.109Z,96804.34
2022-10-11T11:36:18.444Z,96804.56
2022-10-11T11:38:47.318Z,96803.81
2022-10-11T11:41:34.110Z,96793.78
2022-10-11T11:44:28.262Z,96794.97
2022-10-11T11:47:03.747Z,96793.13
2022-10-11T11:49:47.686Z,96786.88
2022-10-11T11:52:41.765Z,96781.53
2022-10-11T11:55:49.250Z,96786.47
2022-10-11T11:58:25.573Z,96780.66
2022-10-11T12:00:58.999Z,96793.41
2022-10-11T12:03:31.323Z,96788.72
2022-10-11T12:06:19.423Z,96794.09
2022-10-11T12:09:16.296Z,96784.00
2022-10-11T12:11:55.794Z,96790.09
2022-10-11T12:14:34.605Z,96782.41
2022-10-11T12:17:07.405Z,96776.72
2022-10-11T12:19:35.544Z,96781.13
2022-10-11T12:22:27.782Z,96781.72
2022-10-11T12:25:21.027Z,96775.81
2022-10-11T12:27:52.063Z,96777.09
2022-10-11T12:30:53.527Z,96774.66
2022-10-11T12:33:45.300Z,96765.28
2022-10-11T12:36:22.955Z,96771.72
2022-10-11T12:39:18.549Z,96771.47
2022-10-11T12:42:19.090Z,96763.88
2022-10-11T12:45:12.127Z,96770.78
2022-10-11T12:47:48.506Z,96771.72
2022-10-11T12:50:54.274Z,96770.03
2022-10-11T12:54:21.902Z,96766.19
2022-10-11T12:57:21.570Z,96756.94
2022-10-11T12:59:49.281Z,96763.31
2022-10-11T13:02:21.912Z,96753.78
2022-10-11T13:04:48.839Z,96760.84
2022-10-11T13:07:23.519Z,96761.25
2022-10-11T13:09:54.087Z,96753.50
2022-10-11T13:12:26.219Z,96756.47
2022-10-11T13:15:12.099Z,96757.84
2022-10-11T13:17:40.758Z,96749.03
2022-10-11T13:20:37.497Z,96755.72
2022-10-11T13:23:34.376Z,96746.13
2022-10-11T13:26:02.078Z,96751.59
2022-10-11T13:28:34.139Z,96748.50
2022-10-11T13:31:04.638Z,96753.50
2022-10-11T13:33:35.960Z,96754.19
2022-10-11T13:36:05.885Z,96750.31
2022-10-11T13:38:35.915Z,96754.19
2022-10-11T13:41:08.790Z,96759.50
2022-10-11T13:43:37.543Z,96758.44
2022-10-11T13:46:05.365Z,96766.72
2022-10-11T13:48:38.737Z,96769.53
2022-10-11T13:51:26.709Z,96760.00
2022-10-11T13:54:01.772Z,96765.31
2022-10-11T13:56:32.659Z,96766.34
2022-10-11T13:59:00.576Z,96754.44
2022-10-11T14:01:48.183Z,96769.88
2022-10-11T14:04:17.219Z,96757.16
2022-10-11T14:07:02.369Z,96749.91
2022-10-11T14:09:30.478Z,96757.34
2022-10-11T14:12:26.140Z,96757.53
2022-10-11T14:14:53.024Z,96755.69
2022-10-11T14:17:24.706Z,96761.56
2022-10-11T14:20:11.498Z,96754.34
2022-10-11T14:22:38.457Z,96758.38
2022-10-11T14:25:05.394Z,96762.03
2022-10-11T14:27:32.094Z,96752.22
2022-10-11T14:30:25.221Z,96758.94
2022-10-11T14:32:47.586Z,96763.16
2022-10-11T14:35:20.973Z,96750.34
2022-10-11T14:37:47.893Z,96761.75
2022-10-11T14:40:18.691Z,96756.63
2022-10-11T14:42:45.586Z,96761.31
2022-10-11T14:45:12.212Z,96744.44
2022-10-11T14:47:42.924Z,96749.63
2022-10-11T14:50:35.147Z,96747.78
2022-10-11T14:53:03.010Z,96757.09
2022-10-11T14:55:31.111Z,96754.50
2022-10-11T14:57:58.163Z,96752.50
2022-10-11T15:00:28.636Z,96756.94
2022-10-11T15:02:56.030Z,96759.94
2022-10-11T15:05:24.362Z,96752.44
2022-10-11T15:07:51.446Z,96753.09
2022-10-11T15:10:24.370Z,96749.44
2022-10-11T15:12:52.626Z,96748.56
2022-10-11T15:15:22.779Z,96753.47
2022-10-11T15:17:55.739Z,96754.41
2022-10-11T15:20:38.436Z,96758.41
2022-10-11T15:23:07.763Z,96760.44
2022-10-11T15:25:34.721Z,96757.06
2022-10-11T15:28:01.369Z,96753.88
2022-10-11T15:30:41.284Z,96748.56
2022-10-11T15:33:09.191Z,96747.38
2022-10-11T15:35:36.010Z,96747.91
2022-10-11T15:38:03.554Z,96749.84
2022-10-11T15:40:36.129Z,96749.44
2022-10-11T15:43:03.796Z,96746.38
2022-10-11T15:45:31.027Z,96744.78
2022-10-11T15:47:58.157Z,96749.56
2022-10-11T15:50:34.575Z,96746.19
2022-10-11T15:53:02.840Z,96741.00
2022-10-11T15:55:30.359Z,96741.66
2022-10-11T15:57:57.405Z,96741.03
2022-10-11T16:00:25.539Z,96745.66
2022-10-11T16:02:53.182Z,96749.84
2022-10-11T16:05:24.795Z,96753.78
2022-10-11T16:07:52.375Z,96750.00
2022-10-11T16:10:19.324Z,96748.16
2022-10-11T16:12:46.281Z,96744.88
2022-10-11T16:15:13.690Z,96755.06
2022-10-11T16:17:40.335Z,96757.09
2022-10-11T16:20:07.730Z,96763.69
2022-10-11T16:22:35.115Z,96757.13
2022-10-11T16:25:02.734Z,96763.97
2022-10-11T16:27:29.576Z,96766.22
2022-10-11T16:29:56.440Z,96757.09
2022-10-11T16:32:24.324Z,96757.75
2022-10-11T16:34:51.075Z,96757.09
2022-10-11T16:37:17.794Z,96763.03
2022-10-11T16:39:44.745Z,96765.22
2022-10-11T16:42:11.540Z,96765.94
2022-10-11T16:44:39.359Z,96773.94
2022-10-11T16:47:06.847Z,96778.81
2022-10-11T16:49:33.606Z,96781.84
2022-10-11T16:52:02.340Z,96784.25
2022-10-11T16:54:30.370Z,96779.34
2022-10-11T16:56:58.209Z,96785.00
2022-10-11T16:59:25.274Z,96792.03
2022-10-11T17:01:51.993Z,96789.13
2022-10-11T17:04:18.700Z,96794.84
2022-10-11T17:06:45.392Z,96795.50
2022-10-11T17:09:12.227Z,96796.38
2022-10-11T17:11:39.026Z,96809.22
2022-10-11T17:14:06.211Z,96802.47
2022-10-11T17:16:33.548Z,96810.63
2022-10-11T17:19:00.364Z,96802.81
2022-10-11T17:21:27.094Z,96799.41
2022-10-11T17:23:53.905Z,96801.47
2022-10-11T17:26:24.909Z,96805.75
2022-10-11T17:28:52.175Z,96801.06
2022-10-11T17:31:19.117Z,96807.78
2022-10-11T17:33:45.817Z,96813.84
2022-10-11T17:36:17.030Z,96803.78
2022-10-11T17:38:43.729Z,96808.56
2022-10-11T17:41:11.064Z,96800.47
2022-10-11T17:43:37.788Z,96798.38
2022-10-11T17:46:06.894Z,96803.78
2022-10-11T17:48:36.661Z,96811.78
2022-10-11T17:51:15.268Z,96806.97
2022-10-11T17:53:42.818Z,96808.91
2022-10-11T17:56:12.817Z,96799.97
2022-10-11T17:58:39.722Z,96804.94
2022-10-11T18:01:10.331Z,96804.09
2022-10-11T18:03:37.627Z,96800.28
2022-10-11T18:06:06.522Z,96808.94
2022-10-11T18:08:40.521Z,96808.94
2022-10-11T18:11:12.819Z,96805.41
2022-10-11T18:13:42.607Z,96802.81
2022-10-11T18:16:10.594Z,96800.09
2022-10-11T18:18:37.875Z,96801.25
2022-10-11T18:21:04.791Z,96805.25
2022-10-11T18:23:32.535Z,96794.69
2022-10-11T18:25:59.112Z,96804.75
2022-10-11T18:28:25.740Z,96811.75
2022-10-11T18:30:53.256Z,96808.19
2022-10-11T18:33:19.895Z,96801.84
2022-10-11T18:35:46.492Z,96806.47
2022-10-11T18:38:13.152Z,96806.00
2022-10-11T18:40:44.741Z,96797.72
2022-10-11T18:43:13.545Z,96794.03
2022-10-11T18:45:40.116Z,96800.84
2022-10-11T18:48:08.656Z,96793.00
2022-10-11T18:50:35.675Z,96805.59
2022-10-11T18:53:02.429Z,96797.19
2022-10-11T18:55:29.081Z,96799.13
2022-10-11T18:57:55.694Z,96802.16
2022-10-11T19:00:40.190Z,96812.16
2022-10-11T19:03:07.677Z,96811.13
2022-10-11T19:05:34.254Z,96796.38
2022-10-11T19:08:00.928Z,96793.84
2022-10-11T19:10:28.149Z,96802.75
2022-10-11T19:12:54.736Z,96805.31
2022-10-11T19:15:24.185Z,96803.56
2022-10-11T19:17:54.616Z,96800.72
2022-10-11T19:20:21.227Z,96804.47
2022-10-11T19:22:47.844Z,96798.53
2022-10-11T19:25:14.544Z,96797.63
2022-10-11T19:27:41.153Z,96796.06
2022-10-11T19:30:08.381Z,96800.63
2022-10-11T19:32:34.972Z,96791.88
2022-10-11T19:35:01.548Z,96802.09
2022-10-11T19:37:28.142Z,96786.84
2022-10-11T19:39:54.690Z,96796.56
2022-10-11T19:42:21.283Z,96794.16
2022-10-11T19:44:47.855Z,96797.81
2022-10-11T19:47:16.075Z,96807.25
2022-10-11T19:49:42.651Z,96805.78
2022-10-11T19:52:09.603Z,96804.63
2022-10-11T19:54:36.192Z,96804.47
2022-10-11T19:57:02.803Z,96807.91
2022-10-11T19:59:29.438Z,96809.50
2022-10-11T20:01:56.045Z,96808.72
2022-10-11T20:04:50.473Z,96806.66
2022-10-11T20:07:10.043Z,96804.31
2022-10-11T20:09:36.777Z,96807.28
2022-10-11T20:12:03.466Z,96804.91
2022-10-11T20:14:30.057Z,96811.59
2022-10-11T20:16:56.667Z,96812.78
2022-10-11T20:19:29.342Z,96816.00
2022-10-11T20:21:57.498Z,96811.91
2022-10-11T20:24:24.175Z,96814.78
2022-10-11T20:26:50.763Z,96812.00
2022-10-11T20:29:17.324Z,96815.56
2022-10-11T20:31:43.956Z,96814.63
2022-10-11T20:34:11.167Z,96805.41
2022-10-11T20:36:37.903Z,96812.78
2022-10-11T20:39:05.866Z,96807.22
2022-10-11T20:41:37.223Z,96807.44
2022-10-11T20:44:04.824Z,96810.50
2022-10-11T20:46:33.660Z,96806.38
2022-10-11T20:49:02.907Z,96805.25
2022-10-11T20:51:31.161Z,96808.47
2022-10-11T20:53:59.242Z,96816.47
2022-10-11T20:56:26.759Z,96817.78
2022-10-11T20:58:55.248Z,96811.63
2022-10-11T21:01:34.479Z,96807.97
2022-10-11T21:04:02.251Z,96809.28
2022-10-11T21:06:30.655Z,96813.59
2022-10-11T21:08:59.142Z,96813.94
2022-10-11T21:11:31.283Z,96813.59
2022-10-11T21:14:03.513Z,96817.28
2022-10-11T21:16:30.216Z,96817.16
2022-10-11T21:18:58.423Z,96809.97
2022-10-11T21:21:25.987Z,96807.91
2022-10-11T21:23:57.037Z,96810.59
2022-10-11T21:26:23.735Z,96815.56
2022-10-11T21:28:50.726Z,96809.03
2022-10-11T21:31:19.105Z,96814.78
2022-10-11T21:33:46.107Z,96809.41
2022-10-11T21:36:21.191Z,96811.34
2022-10-11T21:38:48.751Z,96803.28
2022-10-11T21:41:18.294Z,96806.81
2022-10-11T21:43:45.075Z,96809.06
2022-10-11T21:46:18.924Z,96799.56
2022-10-11T21:48:46.028Z,96796.28
2022-10-11T21:51:27.778Z,96794.78
2022-10-11T21:53:56.200Z,96803.34
2022-10-11T21:56:23.102Z,96796.97
2022-10-11T21:58:50.629Z,96794.78
2022-10-11T22:01:18.715Z,96791.16
2022-10-11T22:03:46.189Z,96793.34
2022-10-11T22:06:13.451Z,96792.09
2022-10-11T22:08:40.899Z,96793.22
2022-10-11T22:11:08.971Z,96792.03
2022-10-11T22:13:35.864Z,96790.16
2022-10-11T22:16:12.842Z,96788.50
2022-10-11T22:18:41.332Z,96787.19
2022-10-11T22:21:13.414Z,96780.84
2022-10-11T22:23:41.355Z,96780.31
2022-10-11T22:26:13.912Z,96787.34
2022-10-11T22:28:41.005Z,96781.63
2022-10-11T22:31:09.415Z,96776.63
2022-10-11T22:33:36.437Z,96783.81
2022-10-11T22:36:05.392Z,96783.34
2022-10-11T22:38:32.000Z,96780.94
2022-10-11T22:40:59.005Z,96778.28
2022-10-11T22:43:25.568Z,96783.94
2022-10-11T22:45:52.171Z,96771.56
2022-10-11T22:48:18.764Z,96784.72
2022-10-11T22:50:45.353Z,96786.03
2022-10-11T22:53:13.269Z,96782.09
2022-10-11T22:55:40.411Z,96779.91
2022-10-11T22:58:07.022Z,96772.09
2022-10-11T23:00:34.249Z,96771.88
2022-10-11T23:03:00.851Z,96776.06
2022-10-11T23:05:27.523Z,96775.50
2022-10-11T23:07:54.128Z,96777.69
2022-10-11T23:10:20.825Z,96783.06
2022-10-11T23:12:47.462Z,96778.72
2022-10-11T23:15:15.280Z,96772.09
2022-10-11T23:17:42.413Z,96776.53
2022-10-11T23:20:09.745Z,96781.25
2022-10-11T23:22:36.338Z,96768.38
2022-10-11T23:25:03.006Z,96779.44
2022-10-11T23:27:30.203Z,96785.34
2022-10-11T23:29:56.950Z,96782.75
2022-10-11T23:32:24.281Z,96782.53
2022-10-11T23:34:51.647Z,96779.88
2022-10-11T23:37:18.397Z,96787.50
2022-10-11T23:39:45.277Z,96782.59
2022-10-11T23:42:11.922Z,96779.34
2022-10-11T23:44:38.498Z,96782.53
2022-10-11T23:47:05.073Z,96784.22
2022-10-11T23:49:31.637Z,96781.00
2022-10-11T23:51:58.269Z,96778.75
2022-10-11T23:54:24.960Z,96779.47
2022-10-11T23:56:51.545Z,96772.72
2022-10-11T23:59:18.135Z,96768.69
